sensor_id;sensor_type;location;lat;lon;timestamp;P1;durP1;ratioP1;P2;durP2;ratioP2
61383;SDS011;47254;49.346;8.798;2022-07-26T00:00:29;4.05;;;1.67;;
61383;SDS011;47254;49.346;8.798;2022-07-26T00:02:54;4.00;;;1.65;;
61383;SDS011;47254;49.346;8.798;2022-07-26T00:05:20;2.73;;;1.80;;
61383;SDS011;47254;49.346;8.798;2022-07-26T00:07:45;3.70;;;1.50;;
61383;SDS011;47254;49.346;8.798;2022-07-26T00:10:11;5.78;;;1.50;;
61383;SDS011;47254;49.346;8.798;2022-07-26T00:12:39;2.38;;;1.30;;
61383;SDS011;47254;49.346;8.798;2022-07-26T00:15:05;2.35;;;1.70;;
61383;SDS011;47254;49.346;8.798;2022-07-26T00:17:33;5.30;;;1.88;;
61383;SDS011;47254;49.346;8.798;2022-07-26T00:20:01;2.50;;;1.77;;
61383;SDS011;47254;49.346;8.798;2022-07-26T00:22:26;2.97;;;1.58;;
61383;SDS011;47254;49.346;8.798;2022-07-26T00:25:04;4.35;;;2.03;;
61383;SDS011;47254;49.346;8.798;2022-07-26T00:27:30;3.25;;;1.85;;
61383;SDS011;47254;49.346;8.798;2022-07-26T00:30:00;1.92;;;1.70;;
61383;SDS011;47254;49.346;8.798;2022-07-26T00:32:25;4.00;;;1.93;;
61383;SDS011;47254;49.346;8.798;2022-07-26T00:34:50;2.37;;;1.60;;
61383;SDS011;47254;49.346;8.798;2022-07-26T00:37:16;5.63;;;1.77;;
61383;SDS011;47254;49.346;8.798;2022-07-26T00:39:41;3.33;;;1.90;;
61383;SDS011;47254;49.346;8.798;2022-07-26T00:42:07;4.82;;;2.05;;
61383;SDS011;47254;49.346;8.798;2022-07-26T00:44:39;3.77;;;1.70;;
61383;SDS011;47254;49.346;8.798;2022-07-26T00:47:07;5.25;;;1.63;;
61383;SDS011;47254;49.346;8.798;2022-07-26T00:49:35;7.32;;;2.20;;
61383;SDS011;47254;49.346;8.798;2022-07-26T00:52:00;5.32;;;2.33;;
61383;SDS011;47254;49.346;8.798;2022-07-26T00:54:25;2.63;;;1.60;;
61383;SDS011;47254;49.346;8.798;2022-07-26T00:56:51;3.83;;;1.73;;
61383;SDS011;47254;49.346;8.798;2022-07-26T00:59:16;6.78;;;2.05;;
61383;SDS011;47254;49.346;8.798;2022-07-26T01:01:44;5.15;;;2.00;;
61383;SDS011;47254;49.346;8.798;2022-07-26T01:04:09;1.90;;;1.50;;
61383;SDS011;47254;49.346;8.798;2022-07-26T01:06:37;5.53;;;1.85;;
61383;SDS011;47254;49.346;8.798;2022-07-26T01:09:02;3.70;;;1.95;;
61383;SDS011;47254;49.346;8.798;2022-07-26T01:11:29;5.45;;;1.45;;
61383;SDS011;47254;49.346;8.798;2022-07-26T01:13:54;3.22;;;1.77;;
61383;SDS011;47254;49.346;8.798;2022-07-26T01:16:22;2.23;;;1.60;;
61383;SDS011;47254;49.346;8.798;2022-07-26T01:18:47;5.55;;;2.08;;
61383;SDS011;47254;49.346;8.798;2022-07-26T01:21:12;7.43;;;2.00;;
61383;SDS011;47254;49.346;8.798;2022-07-26T01:23:38;6.22;;;1.88;;
61383;SDS011;47254;49.346;8.798;2022-07-26T01:26:03;5.53;;;1.93;;
61383;SDS011;47254;49.346;8.798;2022-07-26T01:28:28;2.53;;;1.67;;
61383;SDS011;47254;49.346;8.798;2022-07-26T01:30:54;2.97;;;1.57;;
61383;SDS011;47254;49.346;8.798;2022-07-26T01:33:19;7.65;;;2.20;;
61383;SDS011;47254;49.346;8.798;2022-07-26T01:35:44;2.92;;;1.65;;
61383;SDS011;47254;49.346;8.798;2022-07-26T01:38:10;6.03;;;1.60;;
61383;SDS011;47254;49.346;8.798;2022-07-26T01:40:35;6.50;;;1.52;;
61383;SDS011;47254;49.346;8.798;2022-07-26T01:43:00;5.00;;;1.70;;
61383;SDS011;47254;49.346;8.798;2022-07-26T01:45:25;3.13;;;1.87;;
61383;SDS011;47254;49.346;8.798;2022-07-26T01:47:53;3.60;;;1.75;;
61383;SDS011;47254;49.346;8.798;2022-07-26T01:50:19;5.07;;;2.10;;
61383;SDS011;47254;49.346;8.798;2022-07-26T01:52:46;5.10;;;1.67;;
61383;SDS011;47254;49.346;8.798;2022-07-26T01:55:13;3.28;;;1.98;;
61383;SDS011;47254;49.346;8.798;2022-07-26T01:57:39;2.00;;;1.67;;
61383;SDS011;47254;49.346;8.798;2022-07-26T02:00:04;3.53;;;1.90;;
61383;SDS011;47254;49.346;8.798;2022-07-26T02:02:30;4.57;;;1.90;;
61383;SDS011;47254;49.346;8.798;2022-07-26T02:04:55;6.43;;;1.83;;
61383;SDS011;47254;49.346;8.798;2022-07-26T02:07:24;2.35;;;1.65;;
61383;SDS011;47254;49.346;8.798;2022-07-26T02:09:49;3.47;;;1.48;;
61383;SDS011;47254;49.346;8.798;2022-07-26T02:12:14;5.90;;;2.15;;
61383;SDS011;47254;49.346;8.798;2022-07-26T02:14:44;5.68;;;1.90;;
61383;SDS011;47254;49.346;8.798;2022-07-26T02:17:09;1.75;;;1.60;;
61383;SDS011;47254;49.346;8.798;2022-07-26T02:19:35;4.03;;;2.00;;
61383;SDS011;47254;49.346;8.798;2022-07-26T02:22:03;3.53;;;1.70;;
61383;SDS011;47254;49.346;8.798;2022-07-26T02:24:28;4.30;;;2.20;;
61383;SDS011;47254;49.346;8.798;2022-07-26T02:26:54;1.58;;;1.48;;
61383;SDS011;47254;49.346;8.798;2022-07-26T02:29:22;3.78;;;2.08;;
61383;SDS011;47254;49.346;8.798;2022-07-26T02:31:48;6.15;;;1.77;;
61383;SDS011;47254;49.346;8.798;2022-07-26T02:34:13;6.00;;;2.00;;
61383;SDS011;47254;49.346;8.798;2022-07-26T02:36:38;2.37;;;1.40;;
61383;SDS011;47254;49.346;8.798;2022-07-26T02:39:03;2.05;;;1.67;;
61383;SDS011;47254;49.346;8.798;2022-07-26T02:41:29;3.53;;;2.53;;
61383;SDS011;47254;49.346;8.798;2022-07-26T02:43:56;2.37;;;1.90;;
61383;SDS011;47254;49.346;8.798;2022-07-26T02:46:22;6.63;;;1.75;;
61383;SDS011;47254;49.346;8.798;2022-07-26T02:48:47;5.18;;;1.95;;
61383;SDS011;47254;49.346;8.798;2022-07-26T02:51:12;4.67;;;1.93;;
61383;SDS011;47254;49.346;8.798;2022-07-26T02:53:42;2.85;;;1.85;;
61383;SDS011;47254;49.346;8.798;2022-07-26T02:56:07;1.95;;;1.60;;
61383;SDS011;47254;49.346;8.798;2022-07-26T02:58:32;4.27;;;2.60;;
61383;SDS011;47254;49.346;8.798;2022-07-26T03:00:58;6.30;;;1.83;;
61383;SDS011;47254;49.346;8.798;2022-07-26T03:03:25;2.60;;;1.80;;
61383;SDS011;47254;49.346;8.798;2022-07-26T03:05:51;2.72;;;2.08;;
61383;SDS011;47254;49.346;8.798;2022-07-26T03:08:16;5.20;;;1.80;;
61383;SDS011;47254;49.346;8.798;2022-07-26T03:10:41;3.93;;;2.10;;
61383;SDS011;47254;49.346;8.798;2022-07-26T03:13:06;3.57;;;2.03;;
61383;SDS011;47254;49.346;8.798;2022-07-26T03:15:32;4.05;;;1.60;;
61383;SDS011;47254;49.346;8.798;2022-07-26T03:17:59;7.28;;;2.58;;
61383;SDS011;47254;49.346;8.798;2022-07-26T03:20:25;2.28;;;1.85;;
61383;SDS011;47254;49.346;8.798;2022-07-26T03:22:52;5.03;;;2.35;;
61383;SDS011;47254;49.346;8.798;2022-07-26T03:25:18;2.65;;;2.22;;
61383;SDS011;47254;49.346;8.798;2022-07-26T03:27:43;4.87;;;2.30;;
61383;SDS011;47254;49.346;8.798;2022-07-26T03:30:08;6.60;;;2.17;;
61383;SDS011;47254;49.346;8.798;2022-07-26T03:32:34;4.28;;;2.75;;
61383;SDS011;47254;49.346;8.798;2022-07-26T03:34:59;5.20;;;2.15;;
61383;SDS011;47254;49.346;8.798;2022-07-26T03:37:27;4.80;;;2.00;;
61383;SDS011;47254;49.346;8.798;2022-07-26T03:39:52;6.03;;;2.10;;
61383;SDS011;47254;49.346;8.798;2022-07-26T03:42:17;3.60;;;2.17;;
61383;SDS011;47254;49.346;8.798;2022-07-26T03:44:42;4.00;;;1.90;;
61383;SDS011;47254;49.346;8.798;2022-07-26T03:47:10;8.82;;;2.22;;
61383;SDS011;47254;49.346;8.798;2022-07-26T03:49:35;4.33;;;1.83;;
61383;SDS011;47254;49.346;8.798;2022-07-26T03:52:00;3.60;;;2.60;;
61383;SDS011;47254;49.346;8.798;2022-07-26T03:54:25;13.53;;;2.30;;
61383;SDS011;47254;49.346;8.798;2022-07-26T03:56:53;5.30;;;2.60;;
61383;SDS011;47254;49.346;8.798;2022-07-26T03:59:18;8.37;;;2.33;;
61383;SDS011;47254;49.346;8.798;2022-07-26T04:01:44;5.70;;;2.72;;
61383;SDS011;47254;49.346;8.798;2022-07-26T04:04:13;3.15;;;2.40;;
61383;SDS011;47254;49.346;8.798;2022-07-26T04:06:41;5.63;;;2.15;;
61383;SDS011;47254;49.346;8.798;2022-07-26T04:09:09;5.20;;;2.17;;
61383;SDS011;47254;49.346;8.798;2022-07-26T04:11:34;7.13;;;2.80;;
61383;SDS011;47254;49.346;8.798;2022-07-26T04:14:00;6.67;;;2.77;;
61383;SDS011;47254;49.346;8.798;2022-07-26T04:16:28;7.43;;;2.70;;
61383;SDS011;47254;49.346;8.798;2022-07-26T04:18:54;6.93;;;3.15;;
61383;SDS011;47254;49.346;8.798;2022-07-26T04:21:21;3.95;;;2.10;;
61383;SDS011;47254;49.346;8.798;2022-07-26T04:23:46;7.22;;;2.92;;
61383;SDS011;47254;49.346;8.798;2022-07-26T04:26:12;4.97;;;2.33;;
61383;SDS011;47254;49.346;8.798;2022-07-26T04:28:38;10.93;;;2.35;;
61383;SDS011;47254;49.346;8.798;2022-07-26T04:31:06;3.22;;;2.10;;
61383;SDS011;47254;49.346;8.798;2022-07-26T04:33:31;7.40;;;2.63;;
61383;SDS011;47254;49.346;8.798;2022-07-26T04:35:57;4.43;;;2.27;;
61383;SDS011;47254;49.346;8.798;2022-07-26T04:38:22;3.80;;;2.90;;
61383;SDS011;47254;49.346;8.798;2022-07-26T04:40:48;5.90;;;2.43;;
61383;SDS011;47254;49.346;8.798;2022-07-26T04:43:13;4.47;;;2.33;;
61383;SDS011;47254;49.346;8.798;2022-07-26T04:45:38;10.87;;;2.53;;
61383;SDS011;47254;49.346;8.798;2022-07-26T04:48:04;7.03;;;2.90;;
61383;SDS011;47254;49.346;8.798;2022-07-26T04:50:29;13.90;;;3.30;;
61383;SDS011;47254;49.346;8.798;2022-07-26T04:52:54;4.40;;;2.47;;
61383;SDS011;47254;49.346;8.798;2022-07-26T04:55:20;4.60;;;2.60;;
61383;SDS011;47254;49.346;8.798;2022-07-26T04:57:45;4.95;;;1.92;;
61383;SDS011;47254;49.346;8.798;2022-07-26T05:00:11;4.75;;;1.90;;
61383;SDS011;47254;49.346;8.798;2022-07-26T05:02:37;3.60;;;2.05;;
61383;SDS011;47254;49.346;8.798;2022-07-26T05:05:05;13.95;;;4.38;;
61383;SDS011;47254;49.346;8.798;2022-07-26T05:10:05;5.75;;;2.50;;
61383;SDS011;47254;49.346;8.798;2022-07-26T05:12:30;4.40;;;2.22;;
61383;SDS011;47254;49.346;8.798;2022-07-26T05:14:57;7.75;;;2.88;;
61383;SDS011;47254;49.346;8.798;2022-07-26T05:17:23;6.50;;;2.13;;
61383;SDS011;47254;49.346;8.798;2022-07-26T05:19:48;2.47;;;2.17;;
61383;SDS011;47254;49.346;8.798;2022-07-26T05:22:13;6.37;;;2.50;;
61383;SDS011;47254;49.346;8.798;2022-07-26T05:24:38;4.17;;;2.30;;
61383;SDS011;47254;49.346;8.798;2022-07-26T05:27:03;6.30;;;2.63;;
61383;SDS011;47254;49.346;8.798;2022-07-26T05:29:29;4.87;;;2.10;;
61383;SDS011;47254;49.346;8.798;2022-07-26T05:31:56;8.75;;;2.58;;
61383;SDS011;47254;49.346;8.798;2022-07-26T05:34:21;10.43;;;2.87;;
61383;SDS011;47254;49.346;8.798;2022-07-26T05:36:51;10.43;;;2.33;;
61383;SDS011;47254;49.346;8.798;2022-07-26T05:39:18;8.68;;;2.50;;
61383;SDS011;47254;49.346;8.798;2022-07-26T05:41:43;10.10;;;2.10;;
61383;SDS011;47254;49.346;8.798;2022-07-26T05:44:08;5.93;;;2.40;;
61383;SDS011;47254;49.346;8.798;2022-07-26T05:46:36;6.63;;;2.40;;
61383;SDS011;47254;49.346;8.798;2022-07-26T05:49:04;6.68;;;2.10;;
61383;SDS011;47254;49.346;8.798;2022-07-26T05:51:29;5.78;;;2.20;;
61383;SDS011;47254;49.346;8.798;2022-07-26T05:53:55;4.22;;;2.28;;
61383;SDS011;47254;49.346;8.798;2022-07-26T05:56:20;8.80;;;2.00;;
61383;SDS011;47254;49.346;8.798;2022-07-26T05:58:45;7.05;;;2.67;;
61383;SDS011;47254;49.346;8.798;2022-07-26T06:01:10;11.27;;;2.27;;
61383;SDS011;47254;49.346;8.798;2022-07-26T06:03:35;4.33;;;2.10;;
61383;SDS011;47254;49.346;8.798;2022-07-26T06:06:03;7.10;;;2.50;;
61383;SDS011;47254;49.346;8.798;2022-07-26T06:08:29;4.43;;;2.25;;
61383;SDS011;47254;49.346;8.798;2022-07-26T06:10:54;4.23;;;1.87;;
61383;SDS011;47254;49.346;8.798;2022-07-26T06:13:19;5.82;;;1.77;;
61383;SDS011;47254;49.346;8.798;2022-07-26T06:15:45;7.93;;;1.97;;
61383;SDS011;47254;49.346;8.798;2022-07-26T06:18:12;2.17;;;1.67;;
61383;SDS011;47254;49.346;8.798;2022-07-26T06:20:38;15.32;;;1.92;;
61383;SDS011;47254;49.346;8.798;2022-07-26T06:23:04;5.38;;;1.50;;
61383;SDS011;47254;49.346;8.798;2022-07-26T06:25:32;3.80;;;1.73;;
61383;SDS011;47254;49.346;8.798;2022-07-26T06:27:57;6.70;;;1.77;;
61383;SDS011;47254;49.346;8.798;2022-07-26T06:30:24;8.43;;;1.75;;
61383;SDS011;47254;49.346;8.798;2022-07-26T06:32:50;3.67;;;1.50;;
61383;SDS011;47254;49.346;8.798;2022-07-26T06:35:17;6.63;;;2.03;;
61383;SDS011;47254;49.346;8.798;2022-07-26T06:37:45;4.53;;;1.80;;
61383;SDS011;47254;49.346;8.798;2022-07-26T06:40:13;4.63;;;1.42;;
61383;SDS011;47254;49.346;8.798;2022-07-26T06:42:38;4.13;;;1.73;;
61383;SDS011;47254;49.346;8.798;2022-07-26T06:45:04;3.03;;;1.20;;
61383;SDS011;47254;49.346;8.798;2022-07-26T06:47:29;8.63;;;1.70;;
61383;SDS011;47254;49.346;8.798;2022-07-26T06:49:57;3.35;;;1.60;;
61383;SDS011;47254;49.346;8.798;2022-07-26T06:52:27;8.40;;;1.73;;
61383;SDS011;47254;49.346;8.798;2022-07-26T06:54:54;7.88;;;1.95;;
61383;SDS011;47254;49.346;8.798;2022-07-26T06:57:20;7.40;;;1.52;;
61383;SDS011;47254;49.346;8.798;2022-07-26T06:59:45;8.55;;;1.90;;
61383;SDS011;47254;49.346;8.798;2022-07-26T07:02:10;3.30;;;2.53;;
61383;SDS011;47254;49.346;8.798;2022-07-26T07:04:38;5.90;;;1.55;;
61383;SDS011;47254;49.346;8.798;2022-07-26T07:07:03;1.93;;;1.17;;
61383;SDS011;47254;49.346;8.798;2022-07-26T07:09:34;7.70;;;1.90;;
61383;SDS011;47254;49.346;8.798;2022-07-26T07:12:00;1.90;;;1.23;;
61383;SDS011;47254;49.346;8.798;2022-07-26T07:14:26;2.45;;;1.50;;
61383;SDS011;47254;49.346;8.798;2022-07-26T07:16:51;5.03;;;1.60;;
61383;SDS011;47254;49.346;8.798;2022-07-26T07:19:16;5.20;;;1.70;;
61383;SDS011;47254;49.346;8.798;2022-07-26T07:21:42;9.40;;;1.47;;
61383;SDS011;47254;49.346;8.798;2022-07-26T07:24:07;4.10;;;1.33;;
61383;SDS011;47254;49.346;8.798;2022-07-26T07:26:34;4.63;;;1.95;;
61383;SDS011;47254;49.346;8.798;2022-07-26T07:28:59;9.57;;;1.80;;
61383;SDS011;47254;49.346;8.798;2022-07-26T07:31:25;4.37;;;1.97;;
61383;SDS011;47254;49.346;8.798;2022-07-26T07:33:50;7.88;;;2.03;;
61383;SDS011;47254;49.346;8.798;2022-07-26T07:36:15;4.27;;;1.20;;
61383;SDS011;47254;49.346;8.798;2022-07-26T07:38:41;4.40;;;1.97;;
61383;SDS011;47254;49.346;8.798;2022-07-26T07:41:10;7.97;;;1.70;;
61383;SDS011;47254;49.346;8.798;2022-07-26T07:43:35;13.00;;;1.87;;
61383;SDS011;47254;49.346;8.798;2022-07-26T07:46:01;6.53;;;2.00;;
61383;SDS011;47254;49.346;8.798;2022-07-26T07:48:26;6.20;;;1.13;;
61383;SDS011;47254;49.346;8.798;2022-07-26T07:50:53;4.00;;;1.60;;
61383;SDS011;47254;49.346;8.798;2022-07-26T07:53:21;3.45;;;1.88;;
61383;SDS011;47254;49.346;8.798;2022-07-26T07:55:46;1.73;;;1.42;;
61383;SDS011;47254;49.346;8.798;2022-07-26T07:58:12;2.88;;;1.40;;
61383;SDS011;47254;49.346;8.798;2022-07-26T08:00:40;1.63;;;1.05;;
61383;SDS011;47254;49.346;8.798;2022-07-26T08:03:06;3.83;;;2.10;;
61383;SDS011;47254;49.346;8.798;2022-07-26T08:05:31;3.30;;;1.35;;
61383;SDS011;47254;49.346;8.798;2022-07-26T08:07:56;4.43;;;1.87;;
61383;SDS011;47254;49.346;8.798;2022-07-26T08:10:24;4.60;;;1.42;;
61383;SDS011;47254;49.346;8.798;2022-07-26T08:12:49;6.43;;;1.67;;
61383;SDS011;47254;49.346;8.798;2022-07-26T08:15:14;5.33;;;1.77;;
61383;SDS011;47254;49.346;8.798;2022-07-26T08:17:42;6.22;;;1.42;;
61383;SDS011;47254;49.346;8.798;2022-07-26T08:20:09;4.37;;;1.30;;
61383;SDS011;47254;49.346;8.798;2022-07-26T08:22:37;3.17;;;1.20;;
61383;SDS011;47254;49.346;8.798;2022-07-26T08:25:02;4.67;;;1.40;;
61383;SDS011;47254;49.346;8.798;2022-07-26T08:27:28;2.40;;;1.33;;
61383;SDS011;47254;49.346;8.798;2022-07-26T08:29:53;3.30;;;1.13;;
61383;SDS011;47254;49.346;8.798;2022-07-26T08:32:18;6.80;;;1.53;;
61383;SDS011;47254;49.346;8.798;2022-07-26T08:34:43;3.60;;;1.30;;
61383;SDS011;47254;49.346;8.798;2022-07-26T08:37:11;3.08;;;1.13;;
61383;SDS011;47254;49.346;8.798;2022-07-26T08:39:38;1.90;;;1.00;;
61383;SDS011;47254;49.346;8.798;2022-07-26T08:42:03;4.45;;;1.40;;
61383;SDS011;47254;49.346;8.798;2022-07-26T08:44:36;3.13;;;1.02;;
61383;SDS011;47254;49.346;8.798;2022-07-26T08:47:01;4.10;;;1.40;;
61383;SDS011;47254;49.346;8.798;2022-07-26T08:49:27;6.00;;;1.17;;
61383;SDS011;47254;49.346;8.798;2022-07-26T08:51:54;2.63;;;1.23;;
61383;SDS011;47254;49.346;8.798;2022-07-26T08:54:22;6.25;;;1.60;;
61383;SDS011;47254;49.346;8.798;2022-07-26T08:56:51;2.53;;;1.38;;
61383;SDS011;47254;49.346;8.798;2022-07-26T08:59:17;4.80;;;1.10;;
61383;SDS011;47254;49.346;8.798;2022-07-26T09:01:52;2.13;;;1.00;;
61383;SDS011;47254;49.346;8.798;2022-07-26T09:04:20;2.55;;;1.00;;
61383;SDS011;47254;49.346;8.798;2022-07-26T09:09:30;3.42;;;1.25;;
61383;SDS011;47254;49.346;8.798;2022-07-26T09:11:56;1.85;;;1.20;;
61383;SDS011;47254;49.346;8.798;2022-07-26T09:14:21;2.03;;;1.02;;
61383;SDS011;47254;49.346;8.798;2022-07-26T09:16:56;2.40;;;1.40;;
61383;SDS011;47254;49.346;8.798;2022-07-26T09:19:22;4.28;;;1.20;;
61383;SDS011;47254;49.346;8.798;2022-07-26T09:21:48;2.78;;;1.20;;
61383;SDS011;47254;49.346;8.798;2022-07-26T09:24:33;2.85;;;1.20;;
61383;SDS011;47254;49.346;8.798;2022-07-26T09:26:59;2.90;;;0.98;;
61383;SDS011;47254;49.346;8.798;2022-07-26T09:29:26;2.08;;;1.13;;
61383;SDS011;47254;49.346;8.798;2022-07-26T09:32:08;2.95;;;1.00;;
61383;SDS011;47254;49.346;8.798;2022-07-26T09:34:34;2.70;;;1.45;;
61383;SDS011;47254;49.346;8.798;2022-07-26T09:37:01;2.33;;;1.10;;
61383;SDS011;47254;49.346;8.798;2022-07-26T09:39:29;1.67;;;1.20;;
61383;SDS011;47254;49.346;8.798;2022-07-26T09:41:54;3.20;;;0.98;;
61383;SDS011;47254;49.346;8.798;2022-07-26T09:44:21;4.10;;;1.30;;
61383;SDS011;47254;49.346;8.798;2022-07-26T09:46:55;3.63;;;1.27;;
61383;SDS011;47254;49.346;8.798;2022-07-26T09:49:21;2.05;;;1.05;;
61383;SDS011;47254;49.346;8.798;2022-07-26T09:51:47;3.05;;;1.33;;
61383;SDS011;47254;49.346;8.798;2022-07-26T09:56:52;3.33;;;1.08;;
61383;SDS011;47254;49.346;8.798;2022-07-26T09:59:18;9.43;;;1.33;;
61383;SDS011;47254;49.346;8.798;2022-07-26T10:01:44;3.13;;;1.40;;
61383;SDS011;47254;49.346;8.798;2022-07-26T10:04:10;4.43;;;1.50;;
61383;SDS011;47254;49.346;8.798;2022-07-26T10:06:35;2.83;;;1.00;;
61383;SDS011;47254;49.346;8.798;2022-07-26T10:09:04;1.60;;;0.77;;
61383;SDS011;47254;49.346;8.798;2022-07-26T10:11:31;1.35;;;0.98;;
61383;SDS011;47254;49.346;8.798;2022-07-26T10:13:59;3.05;;;1.30;;
61383;SDS011;47254;49.346;8.798;2022-07-26T10:16:30;2.97;;;1.23;;
61383;SDS011;47254;49.346;8.798;2022-07-26T10:18:56;4.30;;;1.30;;
61383;SDS011;47254;49.346;8.798;2022-07-26T10:23:51;3.60;;;1.03;;
61383;SDS011;47254;49.346;8.798;2022-07-26T10:26:35;4.40;;;1.30;;
61383;SDS011;47254;49.346;8.798;2022-07-26T10:31:44;1.38;;;0.80;;
61383;SDS011;47254;49.346;8.798;2022-07-26T10:34:10;4.80;;;1.20;;
61383;SDS011;47254;49.346;8.798;2022-07-26T10:37:03;1.92;;;0.88;;
61383;SDS011;47254;49.346;8.798;2022-07-26T10:39:29;1.52;;;1.08;;
61383;SDS011;47254;49.346;8.798;2022-07-26T10:42:01;3.63;;;1.00;;
61383;SDS011;47254;49.346;8.798;2022-07-26T10:44:27;3.08;;;1.13;;
61383;SDS011;47254;49.346;8.798;2022-07-26T10:49:20;3.42;;;0.85;;
61383;SDS011;47254;49.346;8.798;2022-07-26T10:51:52;1.98;;;0.93;;
61383;SDS011;47254;49.346;8.798;2022-07-26T10:54:28;1.45;;;0.90;;
61383;SDS011;47254;49.346;8.798;2022-07-26T10:56:53;4.93;;;0.80;;
61383;SDS011;47254;49.346;8.798;2022-07-26T10:59:29;5.10;;;1.20;;
61383;SDS011;47254;49.346;8.798;2022-07-26T11:01:54;3.15;;;0.98;;
61383;SDS011;47254;49.346;8.798;2022-07-26T11:04:20;5.70;;;1.20;;
61383;SDS011;47254;49.346;8.798;2022-07-26T11:06:48;3.13;;;0.80;;
61383;SDS011;47254;49.346;8.798;2022-07-26T11:09:13;2.53;;;1.33;;
61383;SDS011;47254;49.346;8.798;2022-07-26T11:11:39;2.15;;;0.80;;
61383;SDS011;47254;49.346;8.798;2022-07-26T11:14:08;1.58;;;1.00;;
61383;SDS011;47254;49.346;8.798;2022-07-26T11:16:39;3.90;;;1.10;;
61383;SDS011;47254;49.346;8.798;2022-07-26T11:19:21;2.70;;;1.00;;
61383;SDS011;47254;49.346;8.798;2022-07-26T11:21:52;1.92;;;0.90;;
61383;SDS011;47254;49.346;8.798;2022-07-26T11:24:18;2.65;;;1.48;;
61383;SDS011;47254;49.346;8.798;2022-07-26T11:26:44;2.17;;;0.88;;
61383;SDS011;47254;49.346;8.798;2022-07-26T11:29:09;2.33;;;1.05;;
61383;SDS011;47254;49.346;8.798;2022-07-26T11:31:41;2.55;;;0.88;;
61383;SDS011;47254;49.346;8.798;2022-07-26T11:34:07;4.35;;;1.48;;
61383;SDS011;47254;49.346;8.798;2022-07-26T11:36:34;4.97;;;1.55;;
61383;SDS011;47254;49.346;8.798;2022-07-26T11:38:59;1.65;;;1.02;;
61383;SDS011;47254;49.346;8.798;2022-07-26T11:41:27;2.50;;;1.15;;
61383;SDS011;47254;49.346;8.798;2022-07-26T11:43:55;7.07;;;1.20;;
61383;SDS011;47254;49.346;8.798;2022-07-26T11:46:21;5.97;;;1.60;;
61383;SDS011;47254;49.346;8.798;2022-07-26T11:51:12;3.57;;;1.00;;
61383;SDS011;47254;49.346;8.798;2022-07-26T11:53:40;3.28;;;1.17;;
61383;SDS011;47254;49.346;8.798;2022-07-26T11:56:09;4.22;;;1.20;;
61383;SDS011;47254;49.346;8.798;2022-07-26T11:58:34;4.22;;;1.40;;
61383;SDS011;47254;49.346;8.798;2022-07-26T12:00:59;2.83;;;1.53;;
61383;SDS011;47254;49.346;8.798;2022-07-26T12:03:25;4.33;;;1.30;;
61383;SDS011;47254;49.346;8.798;2022-07-26T12:06:06;6.00;;;1.23;;
61383;SDS011;47254;49.346;8.798;2022-07-26T12:09:04;4.72;;;1.48;;
61383;SDS011;47254;49.346;8.798;2022-07-26T12:11:36;4.47;;;0.95;;
61383;SDS011;47254;49.346;8.798;2022-07-26T12:14:02;1.63;;;1.17;;
61383;SDS011;47254;49.346;8.798;2022-07-26T12:16:44;2.10;;;1.40;;
61383;SDS011;47254;49.346;8.798;2022-07-26T12:21:47;1.50;;;0.90;;
61383;SDS011;47254;49.346;8.798;2022-07-26T12:24:36;5.97;;;1.20;;
61383;SDS011;47254;49.346;8.798;2022-07-26T12:27:08;2.28;;;1.08;;
61383;SDS011;47254;49.346;8.798;2022-07-26T12:29:34;5.32;;;1.10;;
61383;SDS011;47254;49.346;8.798;2022-07-26T12:32:01;2.67;;;1.10;;
61383;SDS011;47254;49.346;8.798;2022-07-26T12:34:28;2.63;;;1.00;;
61383;SDS011;47254;49.346;8.798;2022-07-26T12:36:54;4.93;;;1.00;;
61383;SDS011;47254;49.346;8.798;2022-07-26T12:39:19;3.07;;;0.70;;
61383;SDS011;47254;49.346;8.798;2022-07-26T12:41:48;1.95;;;1.00;;
61383;SDS011;47254;49.346;8.798;2022-07-26T12:44:14;3.60;;;1.30;;
61383;SDS011;47254;49.346;8.798;2022-07-26T12:46:40;4.22;;;1.13;;
61383;SDS011;47254;49.346;8.798;2022-07-26T12:49:05;1.67;;;0.90;;
61383;SDS011;47254;49.346;8.798;2022-07-26T12:51:32;5.65;;;1.30;;
61383;SDS011;47254;49.346;8.798;2022-07-26T12:54:00;2.05;;;1.00;;
61383;SDS011;47254;49.346;8.798;2022-07-26T12:56:30;3.05;;;0.98;;
61383;SDS011;47254;49.346;8.798;2022-07-26T12:58:57;4.20;;;1.00;;
61383;SDS011;47254;49.346;8.798;2022-07-26T13:01:26;4.75;;;0.93;;
61383;SDS011;47254;49.346;8.798;2022-07-26T13:03:53;2.63;;;1.00;;
61383;SDS011;47254;49.346;8.798;2022-07-26T13:06:20;1.02;;;0.85;;
61383;SDS011;47254;49.346;8.798;2022-07-26T13:08:46;2.25;;;1.00;;
61383;SDS011;47254;49.346;8.798;2022-07-26T13:11:11;3.22;;;1.20;;
61383;SDS011;47254;49.346;8.798;2022-07-26T13:13:36;1.80;;;0.73;;
61383;SDS011;47254;49.346;8.798;2022-07-26T13:16:02;2.20;;;1.03;;
61383;SDS011;47254;49.346;8.798;2022-07-26T13:18:27;5.82;;;1.35;;
61383;SDS011;47254;49.346;8.798;2022-07-26T13:20:52;2.83;;;1.17;;
61383;SDS011;47254;49.346;8.798;2022-07-26T13:23:20;2.35;;;1.13;;
61383;SDS011;47254;49.346;8.798;2022-07-26T13:25:45;2.17;;;1.13;;
61383;SDS011;47254;49.346;8.798;2022-07-26T13:28:13;2.50;;;1.10;;
61383;SDS011;47254;49.346;8.798;2022-07-26T13:30:39;1.65;;;1.02;;
61383;SDS011;47254;49.346;8.798;2022-07-26T13:33:09;4.10;;;1.00;;
61383;SDS011;47254;49.346;8.798;2022-07-26T13:35:34;2.97;;;1.17;;
61383;SDS011;47254;49.346;8.798;2022-07-26T13:38:00;2.55;;;1.35;;
61383;SDS011;47254;49.346;8.798;2022-07-26T13:40:26;2.33;;;1.50;;
61383;SDS011;47254;49.346;8.798;2022-07-26T13:42:51;4.63;;;1.40;;
61383;SDS011;47254;49.346;8.798;2022-07-26T13:45:17;4.32;;;1.17;;
61383;SDS011;47254;49.346;8.798;2022-07-26T13:47:42;6.10;;;0.90;;
61383;SDS011;47254;49.346;8.798;2022-07-26T13:50:08;2.30;;;1.33;;
61383;SDS011;47254;49.346;8.798;2022-07-26T13:52:33;4.85;;;1.55;;
61383;SDS011;47254;49.346;8.798;2022-07-26T13:55:01;6.13;;;1.10;;
61383;SDS011;47254;49.346;8.798;2022-07-26T13:57:26;6.57;;;1.27;;
61383;SDS011;47254;49.346;8.798;2022-07-26T13:59:51;4.57;;;1.27;;
61383;SDS011;47254;49.346;8.798;2022-07-26T14:02:16;3.10;;;0.90;;
61383;SDS011;47254;49.346;8.798;2022-07-26T14:04:41;3.57;;;1.00;;
61383;SDS011;47254;49.346;8.798;2022-07-26T14:07:07;2.47;;;0.93;;
61383;SDS011;47254;49.346;8.798;2022-07-26T14:09:32;1.43;;;1.10;;
61383;SDS011;47254;49.346;8.798;2022-07-26T14:11:57;4.47;;;0.90;;
61383;SDS011;47254;49.346;8.798;2022-07-26T14:14:24;1.95;;;0.93;;
61383;SDS011;47254;49.346;8.798;2022-07-26T14:16:50;1.67;;;1.00;;
61383;SDS011;47254;49.346;8.798;2022-07-26T14:19:17;2.83;;;1.30;;
61383;SDS011;47254;49.346;8.798;2022-07-26T14:21:42;3.55;;;1.20;;
61383;SDS011;47254;49.346;8.798;2022-07-26T14:24:10;3.60;;;0.90;;
61383;SDS011;47254;49.346;8.798;2022-07-26T14:26:35;5.93;;;1.00;;
61383;SDS011;47254;49.346;8.798;2022-07-26T14:29:03;3.00;;;1.00;;
61383;SDS011;47254;49.346;8.798;2022-07-26T14:31:31;4.05;;;1.13;;
61383;SDS011;47254;49.346;8.798;2022-07-26T14:33:58;3.33;;;0.90;;
61383;SDS011;47254;49.346;8.798;2022-07-26T14:36:23;5.70;;;1.30;;
61383;SDS011;47254;49.346;8.798;2022-07-26T14:38:51;2.88;;;1.10;;
61383;SDS011;47254;49.346;8.798;2022-07-26T14:41:16;5.23;;;1.30;;
61383;SDS011;47254;49.346;8.798;2022-07-26T14:43:41;7.05;;;1.45;;
61383;SDS011;47254;49.346;8.798;2022-07-26T14:46:09;1.67;;;1.30;;
61383;SDS011;47254;49.346;8.798;2022-07-26T14:48:34;5.40;;;1.75;;
61383;SDS011;47254;49.346;8.798;2022-07-26T14:51:02;5.70;;;0.90;;
61383;SDS011;47254;49.346;8.798;2022-07-26T14:53:29;2.80;;;1.40;;
61383;SDS011;47254;49.346;8.798;2022-07-26T14:55:55;2.13;;;1.17;;
61383;SDS011;47254;49.346;8.798;2022-07-26T14:58:21;2.03;;;0.93;;
61383;SDS011;47254;49.346;8.798;2022-07-26T15:00:46;2.28;;;1.00;;
61383;SDS011;47254;49.346;8.798;2022-07-26T15:03:11;1.30;;;1.20;;
61383;SDS011;47254;49.346;8.798;2022-07-26T15:05:36;2.75;;;1.25;;